Nearby METAR Reports

Actuele Vliegveldwaarnemingen NL (METAR).Zie KNMI uitleg METAR hier

EHAM - Amsterdam/Schiph, Netherlands
Distance from station: ONO 18km
Updated: 17/04/2024 14:55
Few Clouds
Few Clouds
 Wind van varies
Wind: varies 2 km/h
Temperatuur: 7°C
Dauwpunt: 4°C
Vochtigheid: 81%
Barometer: 1011 hPa
Clouds: Few Clouds
Visibility: 10 km
Cloud details: Few Clouds 457 m
Gedeeltelijk bewolkt 549 m
Few Clouds 610 m
2024/04/17 12:55 EHAM 171255Z VRB01KT 9999 FEW015 SCT018 FEW020TCU 07/04 Q1011 NOSIG
EHKD - DE KOOY/DE KOOY
Updated: 17/04/2024 15:25
Lichte regen, Zwaar bewolkt
Lichte regen, Zwaar bewolkt
 Wind van WNW
Wind: WNW 17 km/h
Temperatuur: 7°C
Wind Chill: 4°C
Dauwpunt: 3°C
Vochtigheid: 76%
Barometer: 1011 hPa
Overzicht: Lichte regen
Clouds: Zwaar bewolkt
Visibility: 10 km
Cloud details: Few Clouds 762 m
Meestal bewolkt 1036 m
Zwaar bewolkt 1250 m
2024/04/17 13:25 EHKD 171325Z AUTO 30009KT 260V340 9999 -RA FEW025 BKN034 OVC041 07/03 Q1011 BLU BECMG 34012KT TEMPO 4500 -SHRAGS SCT015 SCT020CB
 
EHLW - LEEUWARDEN/LEEUWARDEN
Updated: 17/04/2024 15:06
Lichte regen, Zwaar bewolkt
Lichte regen, Zwaar bewolkt
 Wind van W
Wind: W 19 km/h
Temperatuur: 6°C
Wind Chill: 3°C
Dauwpunt: 4°C
Vochtigheid: 87%
Barometer: 1011 hPa
Overzicht: Lichte regen
Clouds: Zwaar bewolkt
Visibility: 10 km
Cloud details: Few Clouds 457 m
Zwaar bewolkt 1646 m
2024/04/17 13:06 EHLW 171306Z AUTO 27010KT 260V320 9999 -RA FEW015CB OVC054 06/04 Q1011 BLU
EHVK - VOLKEL/VOLKEL
Updated: 17/04/2024 14:55
Meestal bewolkt
Meestal bewolkt
 Wind van W
Wind: W 15 km/h
Temperatuur: 9°C
Wind Chill: 7°C
Dauwpunt: 3°C
Vochtigheid: 66%
Barometer: 1011 hPa
Clouds: Meestal bewolkt
Visibility: 10 km
Cloud details: Gedeeltelijk bewolkt 762 m
Meestal bewolkt 975 m
Meestal bewolkt 1981 m
2024/04/17 12:55 EHVK 171255Z AUTO 28008KT 230V330 9999 SCT025 BKN032 BKN065 09/03 Q1011 BLU TEMPO 33010G25KT 4500 SHRA BKN018CB BKN035
 
EHFS - VLISSINGEN
Updated: 17/04/2024 14:55
Gedeeltelijk bewolkt
Gedeeltelijk bewolkt
 Wind van NNW
Wind: NNW 19 km/h
Temperatuur: 8°C
Wind Chill: 4°C
Dauwpunt: 4°C
Vochtigheid: 76%
Barometer: 1012 hPa
Clouds: Gedeeltelijk bewolkt
Visibility: 10 km
Cloud details: Few Clouds 213 m
Gedeeltelijk bewolkt 1341 m
2024/04/17 12:55 EHFS 171255Z AUTO 33010KT 300V360 9999 FEW007/// SCT044/// 08/04 Q1012
EHEH - EINDHOVEN/EINDHOVEN
Updated: 17/04/2024 15:18
Lichte regen, Meestal bewolkt
Lichte regen, Meestal bewolkt
 Wind van NNO
Wind: NNO 7 km/h
Temperatuur: 5°C
Wind Chill: 3°C
Dauwpunt: 3°C
Vochtigheid: 87%
Barometer: 1012 hPa
Overzicht: Lichte regen
Clouds: Meestal bewolkt
Visibility: 10 km
Cloud details: Few Clouds 61 m
Gedeeltelijk bewolkt 457 m
Meestal bewolkt 732 m
Meestal bewolkt 853 m
2024/04/17 13:18 EHEH 171318Z AUTO 02004KT 060V170 9999 -RA FEW002 SCT015CB BKN024 BKN028 05/03 Q1012 WHT TEMPO 34015G25KT 4000 SHRAGS TSRA SCT015 SCT018CB BKN020
 
EHGR - GILZE-RIJEN/GILZE-RIJEN
Updated: 17/04/2024 15:12
Meestal bewolkt
Meestal bewolkt
 Wind van NNW
Wind: NNW 11 km/h
Temperatuur: 6°C
Wind Chill: 4°C
Dauwpunt: 4°C
Vochtigheid: 87%
Barometer: 1012 hPa
Clouds: Meestal bewolkt
Visibility: 10 km
Cloud details: Few Clouds 396 m
Gedeeltelijk bewolkt 1036 m
Meestal bewolkt 1554 m
2024/04/17 13:12 EHGR 171312Z AUTO 33006KT 290V040 9999 FEW013 SCT034 BKN051 06/04 Q1012 BLU TEMPO 35015G32KT 4000 SHRA FEW015 SCT018CB BKN020
EHDL - ARNHEM/DEELEN
Updated: 17/04/2024 14:55
Lichte regen, Zwaar bewolkt
Lichte regen, Zwaar bewolkt
 Wind van W
Wind: W 19 km/h
Temperatuur: 4°C
Wind Chill: 0°C
Dauwpunt: 3°C
Vochtigheid: 93%
Barometer: 1012 hPa
Overzicht: Lichte regen
Clouds: Zwaar bewolkt
Visibility: 4 km
Cloud details: Meestal bewolkt 457 m
Meestal bewolkt 579 m
Zwaar bewolkt 762 m
2024/04/17 12:55 EHDL 171255Z AUTO 28010KT 200V330 4000 -RA BKN015CB BKN019 OVC025 04/03 Q1012 GRN
 
EHBK - MAASTRICHT/MAASTRICHT-AACHEN
Updated: 17/04/2024 14:55
Few Clouds
Few Clouds
 Wind van W
Wind: W 17 km/h
Temperatuur: 7°C
Wind Chill: 4°C
Dauwpunt: 4°C
Vochtigheid: 81%
Barometer: 1012 hPa
Clouds: Few Clouds
Visibility: 10 km
Cloud details: Few Clouds 396 m
2024/04/17 12:55 EHBK 171255Z AUTO 28009KT 230V340 9999 FEW013 07/04 Q1012 NOSIG